Time;durP1;ratioP1;P1;durP2;ratioP2;P2;SDS_P1;SDS_P2;PMS_P1;PMS_P2;Temp;Humidity;BMP_temperature;BMP_pressure;BME280_temperature;BME280_humidity;BME280_pressure;Samples;Min_cycle;Max_cycle;Signal;HPM_P1;HPM_P2
2021/08/17 00:00:57;;;;;;;11.13;2.97;;;13.10;99.90;;;;;;5060080;28;20070;-47
2021/08/17 00:03:23;;;;;;;13.85;3.53;;;13.10;99.90;;;;;;5057382;28;20061;-48
2021/08/17 00:05:49;;;;;;;12.15;3.25;;;13.10;99.90;;;;;;5057493;28;20024;-46
2021/08/17 00:08:15;;;;;;;16.38;3.50;;;13.10;99.90;;;;;;5068366;28;20406;-48
2021/08/17 00:10:41;;;;;;;5.97;3.03;;;13.10;99.90;;;;;;5069416;28;20028;-47
2021/08/17 00:13:06;;;;;;;12.57;3.03;;;13.20;99.90;;;;;;5067741;28;20039;-46
2021/08/17 00:15:34;;;;;;;9.27;3.28;;;13.10;99.90;;;;;;5069332;28;20020;-47
2021/08/17 00:18:00;;;;;;;14.10;3.58;;;13.20;99.90;;;;;;5068922;28;20029;-47
2021/08/17 00:20:25;;;;;;;14.80;3.47;;;13.20;99.90;;;;;;5069108;28;20032;-46
2021/08/17 00:22:51;;;;;;;12.60;3.28;;;13.20;99.90;;;;;;5069039;28;20159;-46
2021/08/17 00:25:17;;;;;;;10.30;3.70;;;13.20;99.90;;;;;;5069041;28;20043;-46
2021/08/17 00:27:42;;;;;;;15.23;3.85;;;13.10;99.90;;;;;;5068631;28;20490;-46
2021/08/17 00:30:08;;;;;;;11.43;3.05;;;13.20;99.90;;;;;;5069385;28;20016;-46
2021/08/17 00:32:35;;;;;;;16.08;3.25;;;13.20;99.90;;;;;;5069216;28;20028;-46
2021/08/17 00:35:01;;;;;;;11.73;3.13;;;13.20;99.90;;;;;;5069105;28;20051;-46
2021/08/17 00:37:26;;;;;;;14.60;4.55;;;13.20;99.90;;;;;;5068300;28;20478;-46
2021/08/17 00:39:53;;;;;;;11.70;3.95;;;13.20;99.90;;;;;;5068903;28;20320;-47
2021/08/17 00:42:19;;;;;;;12.55;3.80;;;13.20;99.90;;;;;;5069190;28;20478;-47
2021/08/17 00:44:44;;;;;;;8.90;3.58;;;13.10;99.90;;;;;;5068732;28;20043;-46
2021/08/17 00:47:12;;;;;;;10.27;5.28;;;13.10;99.90;;;;;;5068099;28;20022;-47
2021/08/17 00:49:38;;;;;;;18.10;3.28;;;13.10;99.90;;;;;;5069117;28;20098;-46
2021/08/17 00:52:05;;;;;;;9.18;3.60;;;13.10;99.90;;;;;;5059513;28;20024;-46
2021/08/17 00:54:33;;;;;;;15.13;4.60;;;13.10;99.90;;;;;;5057803;28;20060;-46
2021/08/17 00:57:00;;;;;;;13.48;3.47;;;13.10;99.90;;;;;;5056464;28;20029;-47
2021/08/17 00:59:31;;;;;;;12.32;3.47;;;13.10;99.90;;;;;;5057058;28;20115;-46
2021/08/17 01:01:57;;;;;;;15.82;4.10;;;13.10;99.90;;;;;;5073326;28;20021;-47
2021/08/17 01:04:22;;;;;;;13.30;3.67;;;13.20;99.90;;;;;;5057128;28;20013;-47
2021/08/17 01:06:48;;;;;;;16.58;4.95;;;13.20;99.90;;;;;;5056490;28;20017;-46
2021/08/17 01:09:14;;;;;;;13.70;4.22;;;13.20;99.90;;;;;;5057149;28;20068;-47
2021/08/17 01:11:47;;;;;;;11.55;3.90;;;13.20;99.90;;;;;;5057519;28;20677;-47
2021/08/17 01:14:14;;;;;;;13.95;3.72;;;13.10;99.90;;;;;;5058869;28;20055;-46
2021/08/17 01:16:41;;;;;;;14.80;4.43;;;13.20;99.90;;;;;;5050528;28;20033;-48
2021/08/17 01:19:07;;;;;;;21.17;4.28;;;13.20;99.90;;;;;;5048092;28;20113;-47
2021/08/17 01:21:33;;;;;;;17.58;4.40;;;13.10;99.90;;;;;;5048451;28;20481;-46
2021/08/17 01:23:59;;;;;;;9.45;4.15;;;13.10;99.90;;;;;;5048387;28;20022;-46
2021/08/17 01:26:24;;;;;;;17.45;4.72;;;13.00;99.90;;;;;;5046437;28;20075;-47
2021/08/17 01:28:50;;;;;;;14.75;4.45;;;13.00;99.90;;;;;;5048161;28;20041;-46
2021/08/17 01:31:15;;;;;;;14.77;4.97;;;13.00;99.90;;;;;;5048339;28;20578;-47
2021/08/17 01:33:41;;;;;;;13.40;4.43;;;13.00;99.90;;;;;;5048259;28;20033;-47
2021/08/17 01:36:06;;;;;;;14.85;4.40;;;13.00;99.90;;;;;;5047565;28;20028;-47
2021/08/17 01:38:32;;;;;;;12.82;4.47;;;13.00;99.90;;;;;;5048139;28;20040;-47
2021/08/17 01:40:57;;;;;;;16.48;4.88;;;13.00;99.90;;;;;;5048238;28;20142;-49
2021/08/17 01:43:23;;;;;;;16.40;5.30;;;13.00;99.90;;;;;;5048028;28;20410;-46
2021/08/17 01:46:06;;;;;;;15.57;5.25;;;13.00;99.90;;;;;;5048146;28;20036;-48
2021/08/17 01:48:32;;;;;;;12.98;5.07;;;13.10;99.90;;;;;;5048077;28;20037;-47
2021/08/17 01:50:59;;;;;;;15.65;5.68;;;13.10;99.90;;;;;;5048375;28;20113;-47
2021/08/17 01:53:26;;;;;;;19.40;5.97;;;13.10;99.90;;;;;;5047182;28;20071;-46
2021/08/17 01:55:53;;;;;;;16.45;5.25;;;13.10;99.90;;;;;;5048384;28;20025;-46
2021/08/17 01:58:19;;;;;;;17.23;5.55;;;13.10;99.90;;;;;;5046800;28;20028;-47
2021/08/17 02:00:46;;;;;;;18.80;5.82;;;13.20;99.90;;;;;;5048336;28;20498;-46
2021/08/17 02:03:11;;;;;;;16.98;5.60;;;13.10;99.90;;;;;;5046750;28;20033;-46
2021/08/17 02:05:37;;;;;;;12.73;5.43;;;13.20;99.90;;;;;;5048080;28;20040;-47
2021/08/17 02:08:03;;;;;;;11.80;5.20;;;13.20;99.90;;;;;;5047198;28;20033;-47
2021/08/17 02:10:29;;;;;;;21.05;5.50;;;13.20;99.90;;;;;;5052045;28;20028;-47
2021/08/17 02:12:54;;;;;;;21.08;6.00;;;13.30;99.90;;;;;;5051744;28;20032;-46
2021/08/17 02:15:20;;;;;;;12.82;4.68;;;13.30;99.90;;;;;;5051595;28;20078;-46
2021/08/17 02:17:45;;;;;;;15.63;5.53;;;13.40;99.90;;;;;;5050858;28;20205;-46
2021/08/17 02:20:12;;;;;;;10.48;5.35;;;13.40;99.90;;;;;;5051499;28;20471;-46
2021/08/17 02:22:38;;;;;;;16.27;5.28;;;13.40;99.90;;;;;;5051504;28;20471;-47
2021/08/17 02:25:03;;;;;;;18.48;5.40;;;13.40;99.90;;;;;;5051416;28;20028;-47
2021/08/17 02:27:35;;;;;;;15.02;6.03;;;13.50;99.90;;;;;;5050923;28;20025;-47
2021/08/17 02:30:02;;;;;;;12.98;5.03;;;13.60;99.90;;;;;;5054017;28;20028;-47
2021/08/17 02:32:27;;;;;;;17.50;6.32;;;13.60;99.90;;;;;;5060453;28;20017;-47
2021/08/17 02:34:53;;;;;;;15.85;5.78;;;13.60;99.90;;;;;;5060198;28;20089;-47
2021/08/17 02:37:18;;;;;;;14.10;5.47;;;13.60;99.90;;;;;;5059311;28;20033;-47
2021/08/17 02:39:44;;;;;;;13.18;5.35;;;13.60;99.90;;;;;;5059348;28;20024;-47
2021/08/17 02:42:09;;;;;;;18.70;5.82;;;13.60;99.90;;;;;;5060783;28;20045;-46
2021/08/17 02:44:35;;;;;;;16.23;5.93;;;13.70;99.90;;;;;;5062347;28;20028;-47
2021/08/17 02:47:00;;;;;;;26.65;5.70;;;13.70;99.90;;;;;;5058177;28;20481;-47
2021/08/17 02:49:26;;;;;;;25.83;6.28;;;13.70;99.90;;;;;;5054969;28;20044;-46
2021/08/17 02:51:51;;;;;;;18.80;6.20;;;13.70;99.90;;;;;;5050773;28;20025;-46
2021/08/17 02:54:17;;;;;;;23.13;6.57;;;13.80;99.90;;;;;;5050592;28;20036;-46
2021/08/17 02:56:42;;;;;;;19.13;6.47;;;13.80;99.90;;;;;;5048996;28;20077;-46
2021/08/17 02:59:08;;;;;;;20.33;5.10;;;13.80;99.90;;;;;;5050803;28;20047;-46
2021/08/17 03:01:34;;;;;;;16.75;5.20;;;13.80;99.90;;;;;;5050829;28;20056;-47
2021/08/17 03:03:59;;;;;;;21.92;6.20;;;13.80;99.90;;;;;;5050691;28;20424;-47
2021/08/17 03:06:25;;;;;;;25.52;6.07;;;13.80;99.90;;;;;;5050066;28;20064;-46
2021/08/17 03:08:50;;;;;;;21.17;6.22;;;13.80;99.90;;;;;;5051004;28;20029;-46
2021/08/17 03:11:16;;;;;;;23.77;6.32;;;13.80;99.90;;;;;;5050840;28;20463;-46
2021/08/17 03:13:41;;;;;;;26.67;7.28;;;13.80;99.90;;;;;;5050657;28;20037;-46
2021/08/17 03:16:07;;;;;;;23.33;6.57;;;13.90;99.90;;;;;;5048543;28;20025;-47
2021/08/17 03:18:32;;;;;;;29.85;6.88;;;13.90;99.90;;;;;;5050372;28;20502;-46
2021/08/17 03:20:58;;;;;;;25.48;6.15;;;13.90;99.90;;;;;;5049999;28;20108;-46
2021/08/17 03:23:26;;;;;;;30.55;6.47;;;13.90;99.90;;;;;;5050249;28;20110;-46
2021/08/17 03:25:54;;;;;;;23.73;6.20;;;13.90;99.90;;;;;;5049044;28;20071;-46
2021/08/17 03:28:19;;;;;;;23.77;7.03;;;13.90;99.90;;;;;;5049522;28;20094;-46
2021/08/17 03:30:45;;;;;;;17.67;6.03;;;14.00;99.90;;;;;;5058060;28;20024;-46
2021/08/17 03:33:10;;;;;;;27.40;7.10;;;14.00;99.90;;;;;;5060761;28;20021;-46
2021/08/17 03:35:36;;;;;;;19.02;5.55;;;14.00;99.90;;;;;;5060642;28;20024;-46
2021/08/17 03:38:02;;;;;;;20.25;6.43;;;14.10;99.90;;;;;;5057944;28;20029;-46
2021/08/17 03:40:27;;;;;;;29.02;7.00;;;14.00;99.90;;;;;;5059482;28;20405;-46
2021/08/17 03:42:53;;;;;;;19.08;6.22;;;14.00;99.90;;;;;;5060398;28;20025;-46
2021/08/17 03:45:20;;;;;;;19.83;6.97;;;14.00;99.90;;;;;;5058027;28;20028;-48
2021/08/17 03:47:46;;;;;;;17.95;5.97;;;14.00;99.90;;;;;;5057571;28;20538;-46
2021/08/17 03:50:13;;;;;;;24.20;6.65;;;14.10;99.90;;;;;;5057758;28;20070;-48
2021/08/17 03:52:39;;;;;;;26.77;7.30;;;14.10;99.90;;;;;;5060202;28;20017;-47
2021/08/17 03:55:05;;;;;;;28.65;6.70;;;14.10;99.90;;;;;;5058729;28;20092;-46
2021/08/17 03:57:31;;;;;;;24.67;6.55;;;14.00;99.90;;;;;;5058335;28;20169;-46
2021/08/17 03:59:56;;;;;;;24.85;6.53;;;14.00;99.90;;;;;;5057731;28;20025;-46
2021/08/17 04:02:22;;;;;;;25.83;6.97;;;14.00;99.90;;;;;;5049525;28;20033;-46
2021/08/17 04:04:48;;;;;;;16.58;5.95;;;14.10;99.90;;;;;;5048085;28;20039;-46
2021/08/17 04:07:14;;;;;;;24.27;5.53;;;14.10;99.90;;;;;;5048942;28;20032;-47
2021/08/17 04:09:39;;;;;;;26.60;7.13;;;14.00;99.90;;;;;;5049366;28;20418;-46
2021/08/17 04:12:05;;;;;;;21.00;5.43;;;14.00;99.90;;;;;;5048027;28;20390;-46
2021/08/17 04:14:32;;;;;;;26.30;6.88;;;14.00;99.90;;;;;;5049149;28;20041;-46
2021/08/17 04:16:58;;;;;;;19.48;6.22;;;14.00;99.90;;;;;;5048633;28;20031;-46
2021/08/17 04:19:25;;;;;;;21.23;6.05;;;14.00;99.90;;;;;;5049215;28;20060;-47
2021/08/17 04:21:50;;;;;;;28.60;7.07;;;14.00;99.90;;;;;;5049257;28;20360;-47
2021/08/17 04:24:16;;;;;;;23.40;6.22;;;14.10;99.90;;;;;;5049492;28;20175;-47
2021/08/17 04:26:41;;;;;;;27.73;6.85;;;14.10;99.90;;;;;;5048725;28;20191;-46
2021/08/17 04:29:07;;;;;;;24.65;6.70;;;14.10;99.90;;;;;;5049293;28;20025;-47
2021/08/17 04:31:32;;;;;;;32.53;6.88;;;14.10;99.90;;;;;;5048513;28;20021;-46
2021/08/17 04:33:58;;;;;;;24.92;7.10;;;14.20;99.90;;;;;;5049271;28;20094;-46
2021/08/17 04:36:23;;;;;;;23.88;6.13;;;14.20;99.90;;;;;;5048465;28;20108;-46
2021/08/17 04:38:49;;;;;;;27.08;6.47;;;14.20;99.90;;;;;;5048926;28;20029;-47
2021/08/17 04:41:14;;;;;;;21.65;5.90;;;14.20;99.90;;;;;;5048914;28;20025;-46
2021/08/17 04:43:40;;;;;;;21.77;6.60;;;14.20;99.90;;;;;;5048924;28;20099;-47
2021/08/17 04:46:05;;;;;;;27.42;6.93;;;14.20;99.90;;;;;;5048109;28;20486;-47
2021/08/17 04:48:31;;;;;;;23.67;6.03;;;14.10;99.90;;;;;;5048511;28;20021;-47
2021/08/17 04:50:58;;;;;;;20.70;6.97;;;14.10;99.90;;;;;;5048662;28;20029;-48
2021/08/17 04:53:24;;;;;;;23.95;6.38;;;14.10;99.90;;;;;;5048712;28;20017;-47
2021/08/17 04:55:49;;;;;;;21.52;5.75;;;14.10;99.90;;;;;;5048456;28;20367;-46
2021/08/17 04:58:15;;;;;;;19.35;6.68;;;14.00;99.90;;;;;;5046700;28;20033;-47
2021/08/17 05:00:44;;;;;;;21.80;5.45;;;14.00;99.90;;;;;;5048432;28;20396;-46
2021/08/17 05:03:10;;;;;;;17.98;5.43;;;14.00;99.90;;;;;;5047123;28;20028;-46
2021/08/17 05:05:36;;;;;;;20.98;5.82;;;13.90;99.90;;;;;;5054435;28;20032;-46
2021/08/17 05:08:06;;;;;;;25.00;6.20;;;13.90;99.90;;;;;;5057984;28;20024;-46
2021/08/17 05:10:33;;;;;;;21.13;5.55;;;13.90;99.90;;;;;;5058342;28;20470;-47
2021/08/17 05:13:00;;;;;;;30.17;6.35;;;13.90;99.90;;;;;;5056787;28;20064;-47
2021/08/17 05:15:26;;;;;;;14.68;5.35;;;13.90;99.90;;;;;;5058850;28;20050;-47
2021/08/17 05:17:51;;;;;;;21.45;5.72;;;13.90;99.90;;;;;;5059459;28;20090;-46
2021/08/17 05:20:17;;;;;;;12.65;5.05;;;13.90;99.90;;;;;;5068255;28;20036;-47
2021/08/17 05:22:43;;;;;;;18.88;5.72;;;13.90;99.90;;;;;;5068282;28;20028;-46
2021/08/17 05:25:09;;;;;;;22.45;5.55;;;13.90;99.90;;;;;;5068294;28;20027;-46
2021/08/17 05:27:34;;;;;;;23.63;5.95;;;13.90;99.90;;;;;;5067667;28;20030;-46
2021/08/17 05:30:00;;;;;;;22.67;5.53;;;13.80;99.90;;;;;;5068340;28;20115;-48
2021/08/17 05:32:25;;;;;;;20.40;6.30;;;13.80;99.90;;;;;;5068238;28;20025;-46
2021/08/17 05:34:51;;;;;;;17.25;4.85;;;13.80;99.90;;;;;;5068215;28;20448;-49
2021/08/17 05:37:16;;;;;;;19.60;5.57;;;13.70;99.90;;;;;;5067502;28;20028;-46
2021/08/17 05:39:43;;;;;;;19.27;6.25;;;13.70;99.90;;;;;;5066973;28;20017;-46
2021/08/17 05:42:12;;;;;;;21.75;5.65;;;13.70;99.90;;;;;;5068340;28;20024;-46
2021/08/17 05:44:39;;;;;;;28.05;6.65;;;13.70;99.90;;;;;;5072275;28;20108;-47
2021/08/17 05:47:05;;;;;;;16.05;4.97;;;13.70;99.90;;;;;;5065879;28;20035;-46
2021/08/17 05:49:30;;;;;;;15.52;4.88;;;13.70;99.90;;;;;;5053280;28;20100;-47
2021/08/17 05:51:56;;;;;;;12.90;5.13;;;13.80;99.90;;;;;;5053937;28;20029;-48
2021/08/17 05:54:23;;;;;;;17.08;5.25;;;13.80;99.90;;;;;;5052392;28;20597;-47
2021/08/17 05:56:49;;;;;;;13.23;5.22;;;13.80;99.90;;;;;;5051655;28;20021;-49
2021/08/17 05:59:14;;;;;;;18.52;4.35;;;13.90;99.90;;;;;;5053255;28;20033;-46
2021/08/17 06:01:40;;;;;;;19.45;4.85;;;13.90;99.90;;;;;;5053421;28;20033;-47
2021/08/17 06:04:05;;;;;;;18.65;5.18;;;13.90;99.90;;;;;;5056391;28;20028;-49
2021/08/17 06:06:31;;;;;;;15.45;4.80;;;14.00;99.90;;;;;;5062302;28;20032;-46
2021/08/17 06:08:56;;;;;;;14.00;4.13;;;13.90;99.90;;;;;;5062156;28;20532;-49
2021/08/17 06:11:22;;;;;;;17.25;4.80;;;13.90;99.90;;;;;;5059864;28;20025;-47
2021/08/17 06:13:48;;;;;;;15.65;5.10;;;13.90;99.90;;;;;;5054473;28;20467;-46
2021/08/17 06:16:14;;;;;;;18.52;4.70;;;13.80;99.90;;;;;;5052096;28;20021;-48
2021/08/17 06:18:40;;;;;;;18.83;5.00;;;13.80;99.90;;;;;;5061747;28;20029;-48
2021/08/17 06:21:06;;;;;;;13.23;4.40;;;13.90;99.90;;;;;;5063010;28;20052;-46
2021/08/17 06:23:32;;;;;;;15.13;4.90;;;13.90;99.90;;;;;;5062435;28;20036;-46
2021/08/17 06:25:57;;;;;;;14.52;4.63;;;13.90;99.90;;;;;;5066854;28;20065;-47
2021/08/17 06:28:23;;;;;;;15.10;4.50;;;14.00;99.90;;;;;;5068668;28;20120;-48
2021/08/17 06:30:48;;;;;;;22.42;5.50;;;14.00;99.90;;;;;;5066530;28;20055;-46
2021/08/17 06:33:14;;;;;;;24.10;5.50;;;14.10;99.90;;;;;;5063619;28;20051;-46
2021/08/17 06:35:39;;;;;;;18.55;5.20;;;14.10;99.90;;;;;;5072119;28;20406;-46
2021/08/17 06:38:05;;;;;;;15.77;5.25;;;14.30;99.90;;;;;;5066134;28;20556;-47
2021/08/17 06:40:30;;;;;;;18.35;4.75;;;14.30;99.90;;;;;;5062419;28;20559;-46
2021/08/17 06:42:56;;;;;;;17.92;4.38;;;14.40;99.90;;;;;;5061481;28;20031;-46
2021/08/17 06:45:21;;;;;;;14.07;4.30;;;14.40;99.90;;;;;;5059734;28;20063;-46
2021/08/17 06:47:52;;;;;;;23.02;4.78;;;14.40;99.90;;;;;;5052129;28;20033;-46
2021/08/17 06:50:18;;;;;;;;;;;14.40;99.90;;;;;;5052860;28;20333;-46
2021/08/17 06:52:43;;;;;;;13.95;4.38;;;14.50;99.90;;;;;;5052732;28;20437;-45
2021/08/17 06:55:10;;;;;;;18.10;4.72;;;14.50;99.90;;;;;;5057554;28;20029;-46
2021/08/17 06:57:36;;;;;;;18.45;4.13;;;14.70;99.90;;;;;;5068812;28;20032;-46
2021/08/17 07:00:05;;;;;;;16.40;5.13;;;14.70;99.90;;;;;;5066799;28;20020;-48
2021/08/17 07:02:30;;;;;;;13.70;4.10;;;14.90;99.90;;;;;;5068676;28;20028;-46
2021/08/17 07:04:56;;;;;;;11.52;4.15;;;15.10;99.90;;;;;;5067798;28;20077;-47
2021/08/17 07:07:21;;;;;;;13.05;4.25;;;15.20;99.90;;;;;;5062094;28;20027;-47
2021/08/17 07:09:46;;;;;;;16.80;4.28;;;15.30;99.90;;;;;;5065075;28;20092;-47
2021/08/17 07:12:12;;;;;;;14.10;3.70;;;15.40;99.90;;;;;;5060683;28;20235;-47
2021/08/17 07:14:38;;;;;;;18.17;4.82;;;15.40;99.90;;;;;;5068740;28;20080;-48
2021/08/17 07:17:03;;;;;;;18.40;3.58;;;15.40;99.90;;;;;;5063787;28;20027;-47
2021/08/17 07:19:29;;;;;;;18.25;4.30;;;15.30;99.90;;;;;;5065944;28;20277;-48
2021/08/17 07:21:55;;;;;;;13.35;4.75;;;15.30;99.90;;;;;;5063759;28;20156;-47
2021/08/17 07:24:21;;;;;;;18.73;4.15;;;15.20;99.90;;;;;;5067359;28;20013;-47
2021/08/17 07:26:47;;;;;;;13.85;3.67;;;15.30;99.90;;;;;;5069370;28;20033;-47
2021/08/17 07:29:12;;;;;;;15.35;4.45;;;15.30;99.90;;;;;;5064954;28;20025;-49
2021/08/17 07:31:37;;;;;;;20.63;4.80;;;15.40;99.90;;;;;;5066324;28;20036;-47
2021/08/17 07:34:05;;;;;;;13.32;4.00;;;15.50;99.90;;;;;;5050399;28;20067;-47
2021/08/17 07:36:31;;;;;;;22.13;4.15;;;15.40;99.90;;;;;;5051122;28;20021;-47
2021/08/17 07:38:56;;;;;;;8.30;3.65;;;15.50;99.90;;;;;;5051605;28;20032;-47
2021/08/17 07:41:22;;;;;;;14.40;4.00;;;15.50;99.90;;;;;;5052496;28;20021;-47
2021/08/17 07:43:48;;;;;;;11.75;3.78;;;15.50;99.90;;;;;;5060450;28;20087;-47
2021/08/17 07:46:13;;;;;;;19.00;3.67;;;15.50;99.90;;;;;;5051233;28;20032;-46
2021/08/17 07:48:39;;;;;;;13.18;3.65;;;15.50;99.90;;;;;;5050294;28;20112;-46
2021/08/17 07:51:04;;;;;;;14.50;3.83;;;15.50;99.90;;;;;;5077884;28;20054;-47
2021/08/17 07:53:30;;;;;;;15.43;4.18;;;15.50;99.90;;;;;;5089763;28;20025;-47
2021/08/17 07:55:56;;;;;;;21.35;4.25;;;15.50;99.90;;;;;;5063424;28;20267;-47
2021/08/17 07:58:21;;;;;;;15.23;3.95;;;15.50;99.90;;;;;;5046930;28;20470;-47
2021/08/17 08:00:47;;;;;;;12.77;3.78;;;15.60;99.90;;;;;;5048533;28;20475;-48
2021/08/17 08:03:12;;;;;;;16.95;4.60;;;15.70;99.90;;;;;;5048605;28;20082;-46
2021/08/17 08:05:38;;;;;;;17.77;3.30;;;15.90;99.90;;;;;;5048219;28;20115;-46
2021/08/17 08:08:04;;;;;;;14.38;4.18;;;16.00;99.90;;;;;;5047708;28;20036;-47
2021/08/17 08:10:29;;;;;;;12.07;3.42;;;16.10;99.90;;;;;;5047150;28;20021;-48
2021/08/17 08:12:55;;;;;;;12.75;3.60;;;16.00;99.90;;;;;;5047589;28;20028;-48
2021/08/17 08:15:20;;;;;;;12.88;3.58;;;16.00;99.90;;;;;;5052256;28;20025;-48
2021/08/17 08:17:46;;;;;;;12.48;3.13;;;15.90;99.90;;;;;;5057837;28;20017;-47
2021/08/17 08:20:12;;;;;;;12.75;3.78;;;15.80;99.90;;;;;;5062559;28;20033;-47
2021/08/17 08:22:38;;;;;;;13.80;3.58;;;15.90;99.90;;;;;;5069067;28;20024;-48
2021/08/17 08:25:06;;;;;;;17.40;3.45;;;16.00;99.90;;;;;;5069501;28;20032;-48
2021/08/17 08:27:33;;;;;;;13.60;3.78;;;16.00;99.90;;;;;;5068129;28;20021;-50
2021/08/17 08:29:59;;;;;;;14.82;3.35;;;16.10;99.90;;;;;;5069036;28;20021;-49
2021/08/17 08:32:25;;;;;;;12.23;2.83;;;16.10;99.90;;;;;;5055164;28;20040;-47
2021/08/17 08:34:50;;;;;;;15.40;4.80;;;16.30;99.90;;;;;;5049228;28;20033;-47
2021/08/17 08:37:16;;;;;;;12.27;2.92;;;16.20;99.90;;;;;;5050014;28;20017;-47
2021/08/17 08:39:41;;;;;;;9.82;2.75;;;16.50;99.90;;;;;;5047361;28;20033;-48
2021/08/17 08:42:11;;;;;;;15.70;3.72;;;16.70;99.90;;;;;;5069328;28;20104;-47
2021/08/17 08:44:37;;;;;;;14.95;3.60;;;17.00;99.90;;;;;;5056668;28;20494;-47
2021/08/17 08:47:03;;;;;;;11.43;3.53;;;17.40;99.90;;;;;;5047465;28;20171;-50
2021/08/17 08:49:29;;;;;;;10.75;3.42;;;17.80;99.90;;;;;;5058637;28;20428;-47
2021/08/17 08:51:55;;;;;;;12.68;3.08;;;17.90;99.90;;;;;;5055904;28;20021;-47
2021/08/17 08:54:21;;;;;;;12.07;3.33;;;18.10;99.90;;;;;;5055800;28;20496;-47
2021/08/17 08:56:46;;;;;;;17.48;3.40;;;18.20;99.90;;;;;;5054262;28;20108;-47
2021/08/17 08:59:12;;;;;;;9.90;3.17;;;18.10;99.90;;;;;;5056048;28;20021;-47
2021/08/17 09:01:37;;;;;;;7.78;2.88;;;18.60;99.90;;;;;;5056510;28;20035;-47
2021/08/17 09:04:03;;;;;;;10.05;2.70;;;19.30;99.90;;;;;;5058886;28;20025;-47
2021/08/17 09:06:31;;;;;;;8.30;2.85;;;19.40;98.70;;;;;;5055023;28;20028;-47
2021/08/17 09:09:16;;;;;;;10.88;2.95;;;19.70;97.80;;;;;;5056828;28;20024;-44
2021/08/17 09:11:45;;;;;;;11.80;2.85;;;19.60;97.00;;;;;;5052525;28;20025;-45
2021/08/17 09:14:31;;;;;;;9.45;3.22;;;19.00;97.30;;;;;;5057031;28;20036;-46
2021/08/17 09:16:59;;;;;;;14.77;3.00;;;19.00;98.50;;;;;;5056238;28;20262;-46
2021/08/17 09:19:47;;;;;;;13.95;3.60;;;19.10;97.80;;;;;;5055900;28;20051;-45
2021/08/17 09:22:15;;;;;;;10.45;2.53;;;19.00;97.00;;;;;;5054942;28;20043;-45
2021/08/17 09:24:43;;;;;;;7.95;2.80;;;19.20;96.50;;;;;;5053811;28;20024;-45
2021/08/17 09:27:17;;;;;;;12.30;2.88;;;19.30;95.80;;;;;;5054112;28;20159;-46
2021/08/17 09:29:45;;;;;;;8.77;2.90;;;19.00;96.30;;;;;;5064023;28;20059;-45
2021/08/17 09:32:22;;;;;;;11.40;3.13;;;18.80;96.50;;;;;;5058255;28;20054;-46
2021/08/17 09:34:49;;;;;;;9.75;2.70;;;18.40;96.60;;;;;;5049493;28;20074;-46
2021/08/17 09:37:16;;;;;;;7.00;2.50;;;18.20;98.30;;;;;;5056645;28;20482;-46
2021/08/17 09:39:50;;;;;;;13.63;4.20;;;18.30;97.20;;;;;;5056251;28;20051;-45
2021/08/17 09:42:19;;;;;;;10.07;2.72;;;18.10;98.20;;;;;;5058077;28;20078;-47
2021/08/17 09:44:47;;;;;;;10.55;3.33;;;18.10;98.50;;;;;;5055433;28;20064;-46
2021/08/17 09:47:13;;;;;;;15.05;3.58;;;18.20;97.90;;;;;;5054839;28;20021;-50
2021/08/17 09:49:39;;;;;;;10.15;3.10;;;18.20;98.00;;;;;;5056133;28;20056;-47
2021/08/17 09:52:14;;;;;;;14.05;3.78;;;18.20;97.90;;;;;;5055939;28;20021;-50
2021/08/17 09:54:48;;;;;;;11.63;3.10;;;18.20;97.10;;;;;;5056352;28;20474;-49
2021/08/17 09:57:14;;;;;;;11.65;3.20;;;18.10;97.70;;;;;;5055947;28;20035;-46
2021/08/17 09:59:45;;;;;;;10.95;3.75;;;17.80;97.70;;;;;;5056313;28;20132;-47
2021/08/17 10:02:12;;;;;;;9.27;3.47;;;17.90;97.70;;;;;;5057935;28;20057;-47
2021/08/17 10:04:39;;;;;;;13.98;3.90;;;17.80;98.40;;;;;;5047675;28;20032;-50
2021/08/17 10:07:06;;;;;;;13.20;3.70;;;17.90;98.30;;;;;;5047417;28;20021;-50
2021/08/17 10:09:34;;;;;;;11.30;3.25;;;17.70;98.50;;;;;;5046378;28;20025;-47
2021/08/17 10:12:01;;;;;;;15.35;4.10;;;17.90;98.60;;;;;;5047979;28;20025;-48
2021/08/17 10:14:28;;;;;;;17.00;3.75;;;18.50;97.40;;;;;;5048102;28;20116;-46
2021/08/17 10:16:54;;;;;;;8.35;3.20;;;19.40;95.80;;;;;;5052147;28;20031;-50
2021/08/17 10:19:22;;;;;;;8.45;3.67;;;20.90;93.70;;;;;;5067049;28;20025;-47
2021/08/17 10:21:51;;;;;;;14.25;4.05;;;21.90;92.60;;;;;;5059359;28;20449;-49
2021/08/17 10:24:40;;;;;;;9.50;3.67;;;22.60;89.70;;;;;;5055748;28;20029;-46
2021/08/17 10:27:17;;;;;;;11.10;4.60;;;22.20;89.10;;;;;;5054313;28;20021;-47
2021/08/17 10:30:07;;;;;;;10.18;4.15;;;21.50;88.60;;;;;;5057303;28;20111;-47
2021/08/17 10:32:54;;;;;;;11.25;3.75;;;20.60;90.20;;;;;;5060731;28;20024;-47
2021/08/17 10:35:47;;;;;;;10.38;3.85;;;19.80;91.40;;;;;;5058653;28;20028;-48
2021/08/17 10:38:12;;;;;;;17.05;3.92;;;19.20;93.60;;;;;;5059653;28;20025;-47
2021/08/17 10:40:53;;;;;;;14.32;4.18;;;18.90;93.60;;;;;;5052643;28;20393;-46
2021/08/17 10:43:41;;;;;;;14.18;5.05;;;18.70;94.50;;;;;;5050342;28;20025;-47
2021/08/17 10:46:09;;;;;;;10.35;3.83;;;19.00;94.50;;;;;;5043774;28;20041;-47
2021/08/17 10:48:44;;;;;;;11.98;4.22;;;19.20;94.60;;;;;;5049957;28;20032;-48
2021/08/17 10:51:11;;;;;;;10.77;5.10;;;19.10;95.00;;;;;;5049435;28;20111;-47
2021/08/17 10:53:40;;;;;;;11.73;4.20;;;19.10;94.30;;;;;;5054415;28;20087;-45
2021/08/17 10:56:39;;;;;;;21.52;5.75;;;18.80;95.00;;;;;;5060207;28;20506;-45
2021/08/17 10:59:05;;;;;;;9.73;4.10;;;18.50;95.50;;;;;;5057529;28;20049;-46
2021/08/17 11:01:31;;;;;;;11.20;4.47;;;18.50;96.60;;;;;;5059777;28;20039;-45
2021/08/17 11:03:57;;;;;;;14.18;4.45;;;18.40;96.10;;;;;;5059766;28;20029;-47
2021/08/17 11:06:54;;;;;;;15.77;5.22;;;18.30;96.40;;;;;;5057627;28;20067;-45
2021/08/17 11:09:40;;;;;;;14.75;4.50;;;18.30;96.80;;;;;;5049539;28;20033;-45
2021/08/17 11:12:08;;;;;;;11.13;4.45;;;18.10;96.70;;;;;;5048033;28;20556;-46
2021/08/17 11:14:36;;;;;;;10.85;5.00;;;18.20;97.00;;;;;;5049541;28;20192;-46
2021/08/17 11:17:06;;;;;;;13.00;5.35;;;18.20;96.60;;;;;;5049228;28;20017;-47
2021/08/17 11:19:34;;;;;;;15.95;5.20;;;18.20;96.90;;;;;;5058718;28;20081;-46
2021/08/17 11:22:04;;;;;;;19.40;5.50;;;18.10;97.70;;;;;;5065697;28;20036;-46
2021/08/17 11:24:54;;;;;;;19.08;5.97;;;17.80;99.90;;;;;;5059284;28;20040;-47
2021/08/17 11:27:30;;;;;;;11.55;5.88;;;17.40;99.90;;;;;;5047278;28;20102;-47
2021/08/17 11:29:59;;;;;;;14.05;4.85;;;17.00;99.90;;;;;;5049274;28;20032;-46
2021/08/17 11:32:34;;;;;;;9.82;4.95;;;16.70;99.90;;;;;;5048621;28;20342;-47
2021/08/17 11:35:20;;;;;;;17.13;6.10;;;16.70;99.90;;;;;;5060056;28;20024;-45
2021/08/17 11:37:51;;;;;;;19.23;6.13;;;16.80;99.90;;;;;;5057773;28;20505;-45
2021/08/17 11:40:23;;;;;;;11.65;5.63;;;17.00;99.90;;;;;;5059527;28;20082;-46
2021/08/17 11:42:51;;;;;;;15.02;6.18;;;17.30;99.90;;;;;;5058287;28;20013;-45
2021/08/17 11:45:22;;;;;;;15.00;6.00;;;17.40;99.90;;;;;;5055549;28;20122;-45
2021/08/17 11:47:51;;;;;;;16.25;5.13;;;17.50;99.90;;;;;;5057082;28;20021;-46
2021/08/17 11:50:18;;;;;;;16.60;5.82;;;17.60;99.90;;;;;;5056586;28;20028;-46
2021/08/17 11:52:46;;;;;;;12.38;5.28;;;17.60;99.90;;;;;;5056586;28;20024;-46
2021/08/17 11:55:17;;;;;;;14.52;6.47;;;17.50;99.90;;;;;;5059374;28;20021;-46
2021/08/17 11:57:48;;;;;;;12.82;5.90;;;17.50;99.90;;;;;;5057759;28;20055;-46
2021/08/17 12:00:18;;;;;;;16.02;5.07;;;17.40;99.90;;;;;;5057140;28;20153;-46
2021/08/17 12:02:46;;;;;;;14.45;5.85;;;17.20;99.90;;;;;;5058187;28;20028;-45
2021/08/17 12:05:14;;;;;;;12.30;5.35;;;17.10;99.90;;;;;;5065091;28;20558;-45
2021/08/17 12:07:40;;;;;;;12.13;5.35;;;17.20;99.90;;;;;;5058932;28;20044;-46
2021/08/17 12:10:10;;;;;;;18.73;6.43;;;17.20;99.90;;;;;;5058301;28;20020;-46
2021/08/17 12:13:00;;;;;;;19.85;5.72;;;17.20;99.90;;;;;;5058533;28;20039;-45
2021/08/17 12:15:45;;;;;;;;;;;17.40;99.90;;;;;;5056682;28;20025;-40
2021/08/17 12:18:16;;;;;;;11.65;5.55;;;17.60;99.90;;;;;;5057132;28;19908;-41
2021/08/17 12:20:56;;;;;;;17.52;5.95;;;17.90;99.90;;;;;;5056325;28;20023;-41
2021/08/17 12:23:25;;;;;;;12.63;5.18;;;18.30;99.90;;;;;;5059348;28;20516;-42
2021/08/17 12:25:56;;;;;;;15.07;5.88;;;18.50;99.90;;;;;;5068344;28;20086;-42
2021/08/17 12:28:33;;;;;;;13.55;5.60;;;18.60;99.90;;;;;;5067581;28;20024;-42
2021/08/17 12:31:26;;;;;;;17.08;6.93;;;18.60;99.30;;;;;;5068227;28;20386;-42
2021/08/17 12:33:59;;;;;;;17.17;6.82;;;18.50;99.80;;;;;;5066274;28;20549;-42
2021/08/17 12:36:48;;;;;;;13.10;7.10;;;18.50;99.00;;;;;;5067336;28;20633;-42
2021/08/17 12:39:36;;;;;;;11.60;6.80;;;18.40;98.60;;;;;;5069610;28;20112;-43
2021/08/17 12:42:06;;;;;;;22.65;8.05;;;18.20;99.10;;;;;;5063727;28;20634;-43